Time;durP1;ratioP1;P1;durP2;ratioP2;P2;SDS_P1;SDS_P2;PMS_P1;PMS_P2;Temp;Humidity;BMP_temperature;BMP_pressure;BME280_temperature;BME280_humidity;BME280_pressure;Samples;Min_cycle;Max_cycle;Signal;HPM_P1;HPM_P2
2022/12/13 00:01:53;;;;;;;4.43;3.25;;;;;;;6.03;86.11;100129.72;5031810;28;20029;-75
2022/12/13 00:04:20;;;;;;;4.75;3.30;;;;;;;6.06;86.09;100134.84;5031542;28;20033;-74
2022/12/13 00:06:47;;;;;;;5.18;3.42;;;;;;;6.14;85.82;100148.53;5031334;28;20029;-73
2022/12/13 00:09:17;;;;;;;4.82;2.83;;;;;;;6.27;85.19;100159.19;5031001;28;20409;-73
2022/12/13 00:11:43;;;;;;;3.95;3.00;;;;;;;6.28;85.00;100145.72;5031412;28;20499;-76
2022/12/13 00:14:10;;;;;;;5.68;2.60;;;;;;;6.29;85.10;100147.44;5031188;28;20030;-73
2022/12/13 00:16:36;;;;;;;2.72;2.50;;;;;;;6.28;84.33;100155.53;5031156;28;20033;-75
2022/12/13 00:19:01;;;;;;;3.72;2.45;;;;;;;6.23;83.93;100163.03;5030980;28;20032;-75
2022/12/13 00:21:29;;;;;;;4.47;2.58;;;;;;;6.21;83.42;100165.78;5029899;28;20041;-75
2022/12/13 00:23:55;;;;;;;3.47;2.60;;;;;;;6.18;83.64;100160.66;5030903;28;20048;-75
2022/12/13 00:26:23;;;;;;;3.80;2.80;;;;;;;6.09;83.85;100139.97;5030707;28;20033;-75
2022/12/13 00:28:50;;;;;;;3.78;2.60;;;;;;;6.05;83.19;100143.84;5031083;28;20026;-76
2022/12/13 00:31:17;;;;;;;2.40;2.10;;;;;;;6.23;82.54;100163.88;5031174;28;20029;-74
2022/12/13 00:33:42;;;;;;;2.05;1.73;;;;;;;6.22;82.81;100158.66;5030708;28;20030;-74
2022/12/13 00:36:08;;;;;;;2.97;2.58;;;;;;;6.02;83.19;100123.53;5037263;28;20029;-75
2022/12/13 00:38:35;;;;;;;3.58;2.28;;;;;;;6.26;83.20;100157.47;5036861;28;20052;-74
2022/12/13 00:41:18;;;;;;;2.55;2.28;;;;;;;5.92;83.08;100116.28;5035391;28;20108;-74
2022/12/13 00:43:44;;;;;;;5.68;2.28;;;;;;;5.93;83.47;100128.69;5030357;28;20474;-74
2022/12/13 00:46:18;;;;;;;2.92;2.20;;;;;;;5.98;84.06;100158.56;5028625;28;20048;-74
2022/12/13 00:48:48;;;;;;;3.15;2.55;;;;;;;5.95;84.52;100148.09;5030505;28;20036;-76
2022/12/13 00:51:13;;;;;;;5.28;2.83;;;;;;;5.96;84.48;100134.63;5030966;28;20187;-74
2022/12/13 00:53:39;;;;;;;3.92;2.40;;;;;;;6.00;84.45;100135.28;5030522;28;20096;-76
2022/12/13 00:56:10;;;;;;;3.42;2.58;;;;;;;6.06;84.00;100121.50;5030520;28;20037;-74
2022/12/13 00:58:36;;;;;;;3.57;2.57;;;;;;;6.00;83.69;100108.59;5035113;28;20021;-76
2022/12/13 01:01:06;;;;;;;3.38;2.70;;;;;;;5.93;83.73;100096.66;5034389;28;20047;-74
2022/12/13 01:03:32;;;;;;;3.65;2.60;;;;;;;5.87;84.00;100099.75;5031672;28;20068;-74
2022/12/13 01:05:58;;;;;;;4.05;2.75;;;;;;;5.81;84.46;100092.16;5030403;28;20108;-74
2022/12/13 01:08:26;;;;;;;3.70;2.97;;;;;;;5.81;84.33;100106.31;5030151;28;20036;-75
2022/12/13 01:10:52;;;;;;;5.18;3.33;;;;;;;5.81;84.30;100113.50;5030022;28;20030;-74
2022/12/13 01:13:17;;;;;;;6.50;3.55;;;;;;;5.85;84.23;100125.66;5029880;28;20493;-75
2022/12/13 01:15:45;;;;;;;5.53;3.65;;;;;;;5.88;84.23;100122.78;5029796;28;20025;-74
2022/12/13 01:18:12;;;;;;;3.13;2.75;;;;;;;5.86;84.69;100119.38;5029812;28;20025;-73
2022/12/13 01:20:38;;;;;;;8.23;2.95;;;;;;;6.00;84.81;100129.94;5029975;28;20029;-74
2022/12/13 01:23:04;;;;;;;3.63;2.78;;;;;;;5.89;84.66;100127.19;5044129;28;20056;-76
2022/12/13 01:25:32;;;;;;;3.50;2.63;;;;;;;5.95;84.64;100110.75;5029817;28;20036;-75
2022/12/13 01:27:58;;;;;;;3.17;2.88;;;;;;;6.10;85.13;100109.66;5011235;28;20056;-75
2022/12/13 01:30:24;;;;;;;5.05;3.10;;;;;;;6.04;84.91;100107.41;5029712;28;20109;-75
2022/12/13 01:32:49;;;;;;;4.45;2.78;;;;;;;6.23;84.89;100123.84;5029397;28;20036;-75
2022/12/13 01:35:15;;;;;;;6.50;3.65;;;;;;;6.24;84.47;100125.53;5029621;28;20025;-73
2022/12/13 01:37:41;;;;;;;3.85;3.08;;;;;;;6.30;83.75;100117.06;5029713;28;20032;-74
2022/12/13 01:40:08;;;;;;;4.45;3.00;;;;;;;6.01;83.25;100075.59;5029679;28;20249;-74
2022/12/13 01:42:36;;;;;;;4.25;3.00;;;;;;;6.28;83.21;100129.69;5029388;28;20500;-75
2022/12/13 01:45:19;;;;;;;4.28;3.00;;;;;;;6.26;82.55;100101.41;5029640;28;20500;-74
2022/12/13 01:47:50;;;;;;;3.35;2.40;;;;;;;6.31;83.00;100081.41;5029067;28;20416;-74
2022/12/13 01:50:30;;;;;;;3.22;2.30;;;;;;;6.23;83.22;100107.81;5029516;28;20452;-75
2022/12/13 01:52:58;;;;;;;2.28;2.00;;;;;;;6.25;83.06;100107.69;5029242;28;20123;-75
2022/12/13 01:55:29;;;;;;;3.85;2.67;;;;;;;6.24;82.82;100117.50;5029112;28;20500;-74
2022/12/13 01:57:57;;;;;;;3.10;2.70;;;;;;;6.15;82.83;100098.63;5029672;28;20108;-74
2022/12/13 02:00:24;;;;;;;3.28;2.72;;;;;;;6.26;82.72;100112.06;5029529;28;20525;-75
2022/12/13 02:02:50;;;;;;;3.95;2.85;;;;;;;6.28;82.62;100124.34;5031265;28;20034;-75
2022/12/13 02:05:32;;;;;;;2.75;2.38;;;;;;;6.24;82.79;100112.16;5034986;28;20022;-74
2022/12/13 02:08:00;;;;;;;3.85;2.78;;;;;;;6.30;82.72;100126.94;5032538;28;20397;-75
2022/12/13 02:10:26;;;;;;;3.70;2.95;;;;;;;6.06;82.19;100110.81;5029003;28;20065;-75
2022/12/13 02:12:51;;;;;;;3.10;2.80;;;;;;;6.14;82.01;100100.47;5028784;28;20112;-74
2022/12/13 02:15:18;;;;;;;3.15;2.58;;;;;;;6.16;82.18;100117.22;5029102;28;20536;-73
2022/12/13 02:18:10;;;;;;;2.90;2.70;;;;;;;6.17;82.09;100126.09;5029086;28;20100;-75
2022/12/13 02:21:06;;;;;;;3.10;2.53;;;;;;;6.11;81.95;100151.41;5029058;28;20026;-75
2022/12/13 02:23:50;;;;;;;2.70;2.38;;;;;;;5.95;82.13;100116.94;5029256;28;20091;-76
2022/12/13 02:26:27;;;;;;;3.97;2.50;;;;;;;6.11;82.29;100138.06;5028970;28;20421;-75
2022/12/13 02:29:26;;;;;;;3.03;2.70;;;;;;;6.13;82.13;100144.13;5029103;28;20212;-74
2022/12/13 02:32:06;;;;;;;2.80;2.30;;;;;;;6.18;81.89;100141.97;5028726;28;20050;-75
2022/12/13 02:34:40;;;;;;;3.28;2.53;;;;;;;6.15;81.22;100150.22;5028786;28;20037;-75
2022/12/13 02:37:08;;;;;;;5.03;2.92;;;;;;;6.12;81.69;100160.25;5027532;28;20172;-76
2022/12/13 02:39:40;;;;;;;4.93;3.45;;;;;;;6.19;81.15;100173.06;5028973;28;20382;-75
2022/12/13 02:42:15;;;;;;;3.78;2.67;;;;;;;5.85;81.27;100142.56;5029339;28;20111;-75
2022/12/13 02:44:53;;;;;;;2.80;2.60;;;;;;;6.02;81.36;100176.09;5031848;28;20556;-74
2022/12/13 02:47:23;;;;;;;5.88;3.28;;;;;;;6.11;81.73;100188.78;5032732;28;20112;-74
2022/12/13 02:49:56;;;;;;;3.45;2.85;;;;;;;6.19;81.96;100162.38;5032463;28;20049;-75
2022/12/13 02:52:25;;;;;;;3.45;2.47;;;;;;;6.29;81.87;100171.47;5032802;28;20049;-75
2022/12/13 02:54:53;;;;;;;9.13;3.45;;;;;;;6.36;80.90;100170.03;5033005;28;20025;-76
2022/12/13 02:57:32;;;;;;;2.75;2.30;;;;;;;6.22;80.29;100142.63;5032538;28;20030;-76
2022/12/13 03:00:12;;;;;;;2.95;2.53;;;;;;;6.27;80.09;100152.00;5031237;28;20022;-75
2022/12/13 03:02:55;;;;;;;3.25;2.15;;;;;;;6.37;80.09;100155.75;5032696;28;20025;-75
2022/12/13 03:08:26;;;;;;;3.20;2.15;;;;;;;6.27;80.02;100135.16;5034650;28;20091;-76
2022/12/13 03:11:11;;;;;;;2.03;1.85;;;;;;;6.22;79.80;100162.16;5037997;28;20026;-75
2022/12/13 03:13:53;;;;;;;2.33;2.13;;;;;;;6.18;79.77;100155.31;5035814;28;20033;-75
2022/12/13 03:16:42;;;;;;;2.72;1.85;;;;;;;6.24;79.46;100138.88;5032339;28;20029;-74
2022/12/13 03:19:10;;;;;;;2.50;2.30;;;;;;;6.07;78.78;100120.53;5032107;28;20574;-74
2022/12/13 03:21:42;;;;;;;2.00;1.80;;;;;;;6.12;78.60;100171.78;5032169;28;20021;-75
2022/12/13 03:24:07;;;;;;;2.15;1.73;;;;;;;6.08;78.75;100175.66;5032108;28;20025;-75
2022/12/13 03:26:33;;;;;;;2.22;1.67;;;;;;;6.16;78.37;100180.44;5032231;28;20037;-74
2022/12/13 03:28:59;;;;;;;2.00;1.80;;;;;;;5.53;78.36;100108.38;5032100;28;20033;-75
2022/12/13 03:31:24;;;;;;;3.08;2.25;;;;;;;6.09;78.29;100214.72;5032226;28;20030;-76
2022/12/13 03:33:50;;;;;;;3.13;2.75;;;;;;;6.07;78.36;100173.94;5032015;28;20210;-75
2022/12/13 03:36:17;;;;;;;3.58;2.75;;;;;;;6.11;77.95;100169.25;5032082;28;20444;-75
2022/12/13 03:38:44;;;;;;;3.70;2.75;;;;;;;6.10;77.42;100172.84;5031887;28;20470;-75
2022/12/13 03:41:16;;;;;;;3.15;2.78;;;;;;;6.00;77.17;100169.97;5031931;28;20105;-75
2022/12/13 03:43:42;;;;;;;5.03;3.40;;;;;;;6.03;76.89;100183.09;5031317;28;20087;-74
2022/12/13 03:46:08;;;;;;;3.33;2.72;;;;;;;5.87;76.77;100174.47;5031483;28;20037;-74
2022/12/13 03:48:33;;;;;;;3.40;3.05;;;;;;;5.78;76.87;100167.06;5031675;28;20025;-75
2022/12/13 03:50:59;;;;;;;3.78;2.88;;;;;;;5.74;76.57;100161.09;5031161;28;20107;-74
2022/12/13 03:53:25;;;;;;;4.13;2.30;;;;;;;5.53;76.66;100162.56;5031276;28;20506;-74
2022/12/13 03:55:50;;;;;;;3.42;2.40;;;;;;;5.65;76.85;100192.88;5028939;28;20579;-74
2022/12/13 03:58:16;;;;;;;3.67;3.03;;;;;;;5.65;76.93;100176.88;5031553;28;20052;-74
2022/12/13 04:00:42;;;;;;;3.58;2.92;;;;;;;5.79;76.37;100206.13;5031459;28;20125;-74
2022/12/13 04:03:07;;;;;;;4.25;2.88;;;;;;;5.70;76.16;100202.28;5031664;28;20112;-77
2022/12/13 04:05:33;;;;;;;5.20;3.63;;;;;;;5.61;76.42;100200.22;5031260;28;20083;-76
2022/12/13 04:07:58;;;;;;;3.30;2.75;;;;;;;5.57;76.81;100209.38;5031577;28;20026;-75
2022/12/13 04:10:24;;;;;;;6.18;4.40;;;;;;;5.60;77.14;100222.50;5032059;28;20029;-76
2022/12/13 04:15:50;;;;;;;4.82;3.75;;;;;;;5.59;75.80;100225.31;5032770;28;20495;-75
2022/12/13 04:18:16;;;;;;;7.53;3.97;;;;;;;5.44;74.95;100228.03;5031933;28;20191;-77
2022/12/13 04:20:42;;;;;;;5.97;4.50;;;;;;;5.21;73.78;100220.69;5028708;28;20658;-76
2022/12/13 04:23:08;;;;;;;8.73;5.32;;;;;;;5.14;73.94;100206.06;5028589;28;20123;-75
2022/12/13 04:25:33;;;;;;;5.40;4.60;;;;;;;5.32;74.27;100242.16;5028419;28;20128;-74
2022/12/13 04:27:58;;;;;;;6.53;5.05;;;;;;;5.19;73.63;100238.63;5028185;28;20075;-75
2022/12/13 04:30:24;;;;;;;7.47;5.60;;;;;;;4.89;72.89;100219.28;5028315;28;20029;-75
2022/12/13 04:32:49;;;;;;;9.80;6.55;;;;;;;5.02;73.36;100241.50;5011655;28;20041;-74
2022/12/13 04:35:15;;;;;;;9.50;6.10;;;;;;;4.80;72.84;100235.88;5024319;28;20041;-75
2022/12/13 04:37:40;;;;;;;14.55;7.63;;;;;;;4.76;73.02;100234.34;5026762;28;20046;-75
2022/12/13 04:40:06;;;;;;;12.32;7.65;;;;;;;4.81;73.21;100229.56;5026666;28;20033;-75
2022/12/13 04:42:32;;;;;;;14.10;7.97;;;;;;;4.86;73.33;100227.47;5026730;28;20081;-75
2022/12/13 04:44:57;;;;;;;10.73;7.18;;;;;;;4.75;73.01;100214.84;5027092;28;20050;-78
2022/12/13 04:47:23;;;;;;;9.50;7.15;;;;;;;4.68;72.34;100205.50;5027067;28;20091;-76
2022/12/13 04:49:48;;;;;;;11.60;7.22;;;;;;;4.72;72.50;100206.19;5026795;28;20091;-77
2022/12/13 04:52:13;;;;;;;12.45;7.57;;;;;;;4.70;72.60;100206.31;5024180;28;20061;-76
2022/12/13 04:54:39;;;;;;;13.35;7.70;;;;;;;4.71;72.52;100221.31;5049180;28;20494;-77
2022/12/13 04:57:07;;;;;;;11.73;7.28;;;;;;;4.58;72.24;100214.22;5048164;28;20473;-77
2022/12/13 04:59:32;;;;;;;13.43;8.80;;;;;;;4.29;71.95;100192.06;5049280;28;20067;-77
2022/12/13 05:01:58;;;;;;;13.50;8.52;;;;;;;4.43;71.89;100212.50;5049480;28;20056;-76
2022/12/13 05:04:23;;;;;;;14.23;9.13;;;;;;;4.35;72.25;100215.63;5049090;28;20499;-76
2022/12/13 05:06:48;;;;;;;13.70;9.20;;;;;;;4.29;72.61;100211.56;5048494;28;20036;-77
2022/12/13 05:09:14;;;;;;;15.57;8.82;;;;;;;4.34;72.62;100221.94;5049178;28;20040;-76
2022/12/13 05:11:39;;;;;;;19.00;10.05;;;;;;;4.23;71.81;100227.91;5047692;28;20040;-75
2022/12/13 05:14:05;;;;;;;15.23;9.52;;;;;;;4.09;72.37;100224.38;5049253;28;20051;-75
2022/12/13 05:16:30;;;;;;;15.00;9.20;;;;;;;4.05;72.65;100233.50;5048802;28;20037;-76
2022/12/13 05:18:56;;;;;;;19.77;11.27;;;;;;;4.01;72.48;100234.63;5052241;28;20064;-76
2022/12/13 05:21:21;;;;;;;16.25;10.07;;;;;;;3.91;71.78;100245.00;5052340;28;20119;-75
2022/12/13 05:23:47;;;;;;;13.63;9.23;;;;;;;3.71;72.41;100208.09;5049410;28;20033;-75
2022/12/13 05:26:12;;;;;;;17.88;11.63;;;;;;;3.82;71.74;100243.72;5048786;28;20093;-75
2022/12/13 05:28:37;;;;;;;17.13;10.98;;;;;;;3.71;71.96;100245.31;5048683;28;20028;-77
2022/12/13 05:31:08;;;;;;;18.95;11.70;;;;;;;3.71;72.11;100240.00;5049146;28;20111;-77
2022/12/13 05:33:34;;;;;;;18.70;11.18;;;;;;;3.54;72.12;100253.44;5047013;28;20467;-75
2022/12/13 05:35:59;;;;;;;17.92;11.40;;;;;;;3.51;72.70;100256.28;5047847;28;20025;-76
2022/12/13 05:38:25;;;;;;;18.75;11.10;;;;;;;3.45;72.83;100268.13;5048377;28;20029;-77
2022/12/13 05:40:51;;;;;;;23.05;10.95;;;;;;;3.44;73.19;100258.44;5049556;28;20076;-75
2022/12/13 05:43:16;;;;;;;17.45;10.50;;;;;;;3.52;72.30;100280.09;5051843;28;20555;-75
2022/12/13 05:45:42;;;;;;;16.38;10.25;;;;;;;3.53;71.64;100280.94;5050223;28;20037;-76
2022/12/13 05:48:08;;;;;;;16.40;11.05;;;;;;;3.55;71.93;100271.06;5048697;28;20033;-77
2022/12/13 05:50:34;;;;;;;19.65;11.25;;;;;;;3.53;71.64;100283.63;5048473;28;20044;-75
2022/12/13 05:52:59;;;;;;;20.15;12.13;;;;;;;3.48;72.00;100283.03;5048688;28;20032;-74
2022/12/13 05:55:25;;;;;;;17.90;11.45;;;;;;;3.32;71.82;100285.72;5048462;28;20126;-74
2022/12/13 05:57:50;;;;;;;21.00;12.68;;;;;;;3.38;70.83;100316.41;5048466;28;20416;-75
2022/12/13 06:00:16;;;;;;;20.55;11.55;;;;;;;3.33;71.20;100318.47;5049364;28;20496;-74
2022/12/13 06:02:43;;;;;;;20.02;12.48;;;;;;;3.34;71.27;100318.34;5048553;28;20459;-76
2022/12/13 06:05:10;;;;;;;21.10;11.55;;;;;;;3.32;71.11;100322.06;5048205;28;20033;-74
2022/12/13 06:07:36;;;;;;;19.90;11.73;;;;;;;3.24;71.25;100326.00;5063626;28;20024;-76
2022/12/13 06:10:02;;;;;;;22.92;11.35;;;;;;;3.25;71.39;100319.75;5060887;28;20104;-75
2022/12/13 06:12:28;;;;;;;25.13;12.63;;;;;;;3.29;71.51;100321.28;5056685;28;20024;-75
2022/12/13 06:14:53;;;;;;;19.95;12.20;;;;;;;3.21;72.01;100315.53;5048906;28;20033;-74
2022/12/13 06:17:19;;;;;;;24.25;13.60;;;;;;;3.22;71.55;100324.38;5048507;28;20032;-75
2022/12/13 06:19:45;;;;;;;21.98;12.90;;;;;;;3.10;71.14;100347.16;5047948;28;20029;-75
2022/12/13 06:22:11;;;;;;;19.60;12.10;;;;;;;3.16;71.39;100349.50;5051116;28;20110;-74
2022/12/13 06:24:36;;;;;;;24.13;14.95;;;;;;;3.09;71.37;100328.66;5052667;28;20100;-74
2022/12/13 06:27:04;;;;;;;21.95;11.70;;;;;;;3.43;71.21;100359.50;5051418;28;20029;-73
2022/12/13 06:29:29;;;;;;;27.58;13.93;;;;;;;3.48;70.96;100365.44;5048570;28;20094;-73
2022/12/13 06:31:57;;;;;;;22.02;10.70;;;;;;;3.28;70.45;100332.84;5048702;28;20029;-73
2022/12/13 06:34:23;;;;;;;16.90;10.70;;;;;;;3.51;69.62;100378.56;5048724;28;20032;-74
2022/12/13 06:36:48;;;;;;;21.73;11.50;;;;;;;3.31;69.55;100345.13;5048970;28;20082;-74
2022/12/13 06:39:14;;;;;;;18.55;10.25;;;;;;;3.57;68.82;100384.41;5048815;28;20044;-73
2022/12/13 06:41:40;;;;;;;19.48;11.27;;;;;;;3.63;68.72;100383.19;5048427;28;20377;-74
2022/12/13 06:44:06;;;;;;;24.95;12.40;;;;;;;3.56;68.61;100377.34;5048398;28;20083;-74
2022/12/13 06:46:32;;;;;;;25.27;11.15;;;;;;;3.59;69.01;100389.59;5046269;28;20622;-73
2022/12/13 06:48:57;;;;;;;25.42;14.10;;;;;;;3.63;68.88;100394.69;5048324;28;20045;-73
2022/12/13 06:51:22;;;;;;;30.60;13.63;;;;;;;3.64;68.71;100393.72;5048196;28;20481;-74
2022/12/13 06:53:48;;;;;;;23.45;12.95;;;;;;;3.65;68.46;100400.75;5048903;28;20454;-72
2022/12/13 06:56:14;;;;;;;21.30;12.40;;;;;;;3.67;68.59;100403.34;5047572;28;20373;-74
2022/12/13 06:58:41;;;;;;;31.77;12.50;;;;;;;3.70;68.27;100411.16;5048825;28;20035;-74
2022/12/13 07:01:14;;;;;;;25.05;12.60;;;;;;;3.71;67.88;100421.69;5048617;28;20033;-72
2022/12/13 07:03:40;;;;;;;24.52;14.43;;;;;;;3.79;68.24;100411.47;5048041;28;20025;-75
2022/12/13 07:06:17;;;;;;;26.35;12.13;;;;;;;3.74;68.04;100413.53;5048401;28;20408;-73
2022/12/13 07:08:46;;;;;;;27.33;15.63;;;;;;;3.83;67.75;100406.81;5048427;28;20099;-73
2022/12/13 07:11:17;;;;;;;22.45;12.88;;;;;;;3.90;66.91;100394.91;5048344;28;20025;-74
2022/12/13 07:13:43;;;;;;;25.25;11.57;;;;;;;3.62;64.58;100370.81;5048282;28;20052;-73
2022/12/13 07:16:09;;;;;;;25.25;11.65;;;;;;;3.80;64.22;100401.69;5048007;28;20029;-73
2022/12/13 07:18:35;;;;;;;23.95;12.02;;;;;;;3.72;63.21;100414.56;5048215;28;20033;-73
2022/12/13 07:21:04;;;;;;;23.33;11.05;;;;;;;3.59;63.57;100416.19;5048597;28;20412;-73
2022/12/13 07:23:29;;;;;;;28.98;11.75;;;;;;;3.27;63.93;100380.78;5047088;28;20033;-73
2022/12/13 07:25:55;;;;;;;31.52;11.52;;;;;;;3.47;64.19;100425.72;5048159;28;20021;-74
2022/12/13 07:28:21;;;;;;;19.35;11.05;;;;;;;3.48;64.21;100419.47;5047242;28;20386;-74
2022/12/13 07:30:47;;;;;;;23.73;13.13;;;;;;;3.35;64.44;100404.28;5051382;28;20095;-74
2022/12/13 07:33:13;;;;;;;27.15;14.63;;;;;;;3.60;65.13;100424.09;5053986;28;20036;-75
2022/12/13 07:35:39;;;;;;;21.33;12.50;;;;;;;3.62;64.67;100418.69;5053378;28;20086;-75
2022/12/13 07:38:06;;;;;;;28.27;12.30;;;;;;;3.70;64.89;100411.97;5051647;28;20025;-74
2022/12/13 07:40:36;;;;;;;29.92;16.88;;;;;;;3.79;65.66;100415.94;5051686;28;20029;-73
2022/12/13 07:43:03;;;;;;;33.55;12.95;;;;;;;3.91;65.64;100415.25;5051294;28;20033;-73
2022/12/13 07:45:28;;;;;;;30.08;13.50;;;;;;;4.02;65.99;100420.78;5051445;28;20028;-74
2022/12/13 07:47:54;;;;;;;27.00;12.85;;;;;;;4.05;65.08;100428.59;5051870;28;20040;-74
2022/12/13 07:50:19;;;;;;;26.52;12.70;;;;;;;4.08;65.03;100433.75;5051657;28;20033;-74
2022/12/13 07:52:49;;;;;;;22.35;12.85;;;;;;;4.17;64.77;100427.03;5051694;28;20048;-74
2022/12/13 07:55:16;;;;;;;26.60;12.20;;;;;;;4.25;64.49;100433.59;5051815;28;20550;-73
2022/12/13 07:57:43;;;;;;;20.25;10.70;;;;;;;3.91;64.31;100393.97;5052023;28;20025;-73
2022/12/13 08:00:09;;;;;;;22.73;12.05;;;;;;;4.24;63.73;100447.88;5051702;28;20025;-73
2022/12/13 08:02:35;;;;;;;27.85;13.40;;;;;;;4.29;63.63;100452.94;5051561;28;20039;-73
2022/12/13 08:05:00;;;;;;;21.20;10.88;;;;;;;4.06;63.78;100430.31;5051007;28;20021;-72
2022/12/13 08:07:26;;;;;;;25.40;11.18;;;;;;;4.08;62.70;100433.75;5051356;28;20021;-73
2022/12/13 08:09:51;;;;;;;26.60;12.18;;;;;;;4.26;62.42;100461.94;5050862;28;20227;-73
2022/12/13 08:12:17;;;;;;;22.88;11.88;;;;;;;4.35;62.08;100477.38;5051080;28;20063;-75
2022/12/13 08:14:42;;;;;;;34.90;12.23;;;;;;;4.39;63.32;100486.91;5051598;28;20124;-73
2022/12/13 08:17:07;;;;;;;22.08;11.68;;;;;;;4.50;62.47;100488.09;5051023;28;20056;-74
2022/12/13 08:19:33;;;;;;;15.65;9.70;;;;;;;4.61;61.89;100489.19;5050957;28;20025;-75
2022/12/13 08:21:58;;;;;;;23.88;12.55;;;;;;;4.40;61.39;100462.00;5050869;28;20082;-74
2022/12/13 08:24:26;;;;;;;33.28;13.50;;;;;;;4.45;61.25;100453.75;5050852;28;20025;-75
2022/12/13 08:26:51;;;;;;;21.98;11.57;;;;;;;4.57;60.33;100454.81;5050728;28;20031;-74
2022/12/13 08:29:17;;;;;;;25.85;11.68;;;;;;;4.82;60.73;100490.56;5051835;28;20108;-74
2022/12/13 08:31:42;;;;;;;22.88;11.35;;;;;;;4.88;59.71;100500.00;5053128;28;20507;-74
2022/12/13 08:34:08;;;;;;;18.30;11.32;;;;;;;4.82;60.11;100505.69;5055131;28;20082;-72
2022/12/13 08:36:33;;;;;;;24.55;11.48;;;;;;;4.80;60.43;100489.78;5052288;28;20082;-73
2022/12/13 08:39:01;;;;;;;29.27;11.52;;;;;;;4.70;59.81;100458.47;5049685;28;20052;-73
2022/12/13 08:41:27;;;;;;;34.33;17.45;;;;;;;4.75;60.15;100472.38;5049298;28;20461;-73
2022/12/13 08:43:53;;;;;;;15.90;10.32;;;;;;;4.84;58.67;100493.13;5050174;28;20063;-74
2022/12/13 08:46:18;;;;;;;32.95;10.00;;;;;;;4.54;56.99;100449.69;5050595;28;20037;-73
2022/12/13 08:48:44;;;;;;;13.35;8.40;;;;;;;4.65;56.09;100473.84;5050434;28;20032;-72
2022/12/13 08:51:13;;;;;;;20.98;11.70;;;;;;;4.36;55.84;100476.44;5050523;28;20060;-73
2022/12/13 08:53:39;;;;;;;19.02;9.65;;;;;;;4.25;55.10;100478.03;5050241;28;20033;-73
2022/12/13 08:56:09;;;;;;;16.20;9.00;;;;;;;4.17;55.73;100481.13;5050325;28;20039;-74
2022/12/13 08:58:36;;;;;;;15.55;8.80;;;;;;;3.98;56.33;100488.41;5050315;28;20098;-72
2022/12/13 09:01:08;;;;;;;22.00;10.25;;;;;;;3.67;56.86;100443.25;5050056;28;20029;-73
2022/12/13 09:03:34;;;;;;;17.37;9.23;;;;;;;4.03;57.16;100498.81;5048476;28;20021;-73
2022/12/13 09:06:14;;;;;;;14.77;9.20;;;;;;;4.13;56.03;100519.47;5049994;28;20495;-72
2022/12/13 09:08:40;;;;;;;12.98;7.80;;;;;;;4.22;56.18;100521.63;5049963;28;20029;-73
2022/12/13 09:11:06;;;;;;;20.23;9.32;;;;;;;4.31;56.75;100520.25;5049872;28;20029;-74
2022/12/13 09:13:34;;;;;;;31.05;14.38;;;;;;;4.30;56.58;100508.75;5050077;28;20028;-74
2022/12/13 09:16:08;;;;;;;16.13;9.27;;;;;;;4.42;56.13;100516.97;5049732;28;20021;-74
2022/12/13 09:18:34;;;;;;;24.45;9.90;;;;;;;4.60;56.17;100516.75;5049743;28;20592;-73
2022/12/13 09:20:59;;;;;;;19.13;10.48;;;;;;;4.44;55.96;100478.66;5047461;28;20512;-73
2022/12/13 09:23:25;;;;;;;31.20;14.90;;;;;;;4.61;55.60;100512.28;5049412;28;20029;-73
2022/12/13 09:25:59;;;;;;;17.83;9.30;;;;;;;4.72;55.12;100509.84;5048385;28;20044;-74
2022/12/13 09:28:25;;;;;;;15.52;8.45;;;;;;;4.57;55.27;100508.09;5049657;28;20032;-73
2022/12/13 09:30:51;;;;;;;14.02;8.15;;;;;;;4.50;55.19;100488.94;5049464;28;20029;-75
2022/12/13 09:33:16;;;;;;;17.67;10.07;;;;;;;4.69;55.29;100504.69;5049597;28;20036;-73
2022/12/13 09:35:42;;;;;;;26.23;9.95;;;;;;;4.71;54.65;100506.31;5053800;28;20029;-73
2022/12/13 09:38:07;;;;;;;22.50;10.07;;;;;;;4.75;54.29;100501.66;5053913;28;20397;-74
2022/12/13 09:40:36;;;;;;;14.98;9.32;;;;;;;4.51;54.34;100447.19;5051621;28;20483;-74
2022/12/13 09:43:02;;;;;;;19.15;10.43;;;;;;;4.66;54.78;100464.94;5049216;28;20067;-73
2022/12/13 09:45:28;;;;;;;22.50;10.00;;;;;;;4.83;53.93;100476.28;5046902;28;20045;-75
2022/12/13 09:47:55;;;;;;;15.32;7.78;;;;;;;4.78;53.52;100491.69;5049179;28;20102;-73
2022/12/13 09:50:27;;;;;;;17.35;8.38;;;;;;;4.82;54.14;100490.56;5049141;28;20076;-73
2022/12/13 09:52:53;;;;;;;14.85;8.85;;;;;;;4.75;53.98;100465.25;5048792;28;20052;-73
2022/12/13 09:55:27;;;;;;;23.40;9.57;;;;;;;4.87;53.26;100482.28;5049217;28;20037;-73
2022/12/13 09:57:54;;;;;;;13.75;8.05;;;;;;;4.83;53.07;100470.13;5049000;28;20025;-72
2022/12/13 10:00:33;;;;;;;26.67;9.18;;;;;;;4.86;52.95;100488.59;5049059;28;20024;-74
2022/12/13 10:02:59;;;;;;;14.10;8.27;;;;;;;4.93;52.52;100489.91;5049284;28;20476;-73
2022/12/13 10:05:36;;;;;;;17.48;8.63;;;;;;;4.84;53.06;100456.69;5049458;28;20029;-72
2022/12/13 10:08:19;;;;;;;16.98;9.02;;;;;;;5.04;52.83;100476.81;5049186;28;20484;-73
2022/12/13 10:10:45;;;;;;;20.00;8.30;;;;;;;5.06;52.07;100477.56;5049115;28;20063;-73
2022/12/13 10:13:35;;;;;;;14.25;8.43;;;;;;;5.07;52.53;100484.63;5049528;28;20472;-73
2022/12/13 10:16:05;;;;;;;16.63;7.75;;;;;;;5.12;51.64;100497.66;5049910;28;20495;-73
2022/12/13 10:18:37;;;;;;;23.50;8.48;;;;;;;5.14;51.04;100482.41;5050059;28;20025;-72
2022/12/13 10:21:09;;;;;;;22.13;9.13;;;;;;;5.18;50.60;100490.13;5048919;28;20029;-73
2022/12/13 10:23:35;;;;;;;15.75;8.02;;;;;;;5.18;50.79;100486.63;5049217;28;20075;-74
2022/12/13 10:26:00;;;;;;;14.15;7.78;;;;;;;5.05;50.44;100449.19;5049469;28;20396;-73
2022/12/13 10:28:29;;;;;;;25.13;6.97;;;;;;;5.24;49.91;100481.75;5047461;28;20043;-73
2022/12/13 10:30:56;;;;;;;21.50;11.35;;;;;;;5.27;49.78;100497.56;5048741;28;20103;-74
2022/12/13 10:33:30;;;;;;;17.20;7.00;;;;;;;5.18;49.36;100454.63;5048816;28;20148;-75
2022/12/13 10:36:13;;;;;;;14.30;8.13;;;;;;;5.28;49.39;100440.63;5048780;28;20029;-75
2022/12/13 10:38:44;;;;;;;;;;;;;;;5.59;47.74;100484.06;5050825;28;20037;-72
2022/12/13 10:41:29;;;;;;;32.45;8.95;;;;;;;5.71;48.32;100472.59;5054389;28;19912;-73
2022/12/13 10:44:16;;;;;;;13.15;6.85;;;;;;;5.76;48.58;100465.16;5053386;28;20025;-74
2022/12/13 10:47:00;;;;;;;27.27;8.15;;;;;;;5.82;49.14;100457.59;5048822;28;20037;-74
2022/12/13 10:49:36;;;;;;;12.90;7.07;;;;;;;5.94;48.33;100472.84;5048449;28;20044;-73
2022/12/13 10:52:02;;;;;;;16.92;7.45;;;;;;;5.95;48.44;100455.03;5048280;28;20757;-73
2022/12/13 10:54:35;;;;;;;15.20;6.63;;;;;;;6.09;47.94;100464.78;5048401;28;20056;-75
2022/12/13 10:57:01;;;;;;;14.93;7.50;;;;;;;5.84;47.25;100426.31;5048093;28;20033;-73
2022/12/13 10:59:32;;;;;;;17.00;8.35;;;;;;;5.79;47.58;100414.25;5048345;28;20025;-74
2022/12/13 11:01:59;;;;;;;17.65;8.25;;;;;;;6.21;49.05;100451.50;5048467;28;20033;-73
2022/12/13 11:04:31;;;;;;;12.38;7.45;;;;;;;6.47;48.23;100455.97;5049422;28;20405;-75
2022/12/13 11:07:20;;;;;;;25.60;9.07;;;;;;;6.68;47.29;100447.47;5051987;28;20040;-75
2022/12/13 11:09:46;;;;;;;17.63;6.75;;;;;;;6.79;47.29;100445.75;5052386;28;20489;-74
2022/12/13 11:12:18;;;;;;;14.52;7.25;;;;;;;6.87;46.08;100437.22;5052093;28;20049;-73
2022/12/13 11:15:00;;;;;;;26.90;7.57;;;;;;;6.93;45.97;100436.78;5050921;28;20392;-73
2022/12/13 11:17:29;;;;;;;18.08;7.82;;;;;;;6.97;44.88;100438.31;5049767;28;20507;-74
2022/12/13 11:20:01;;;;;;;12.98;6.38;;;;;;;7.04;44.86;100437.75;5052075;28;20059;-73
2022/12/13 11:22:30;;;;;;;11.75;7.20;;;;;;;6.86;45.25;100406.09;5052170;28;20474;-75
2022/12/13 11:25:24;;;;;;;20.33;8.10;;;;;;;6.97;44.45;100430.28;5052145;28;20021;-73
2022/12/13 11:27:55;;;;;;;15.45;7.78;;;;;;;6.92;44.34;100438.59;5052004;28;20079;-73
2022/12/13 11:30:31;;;;;;;24.95;7.03;;;;;;;6.75;45.15;100432.72;5051750;28;20029;-74
2022/12/13 11:33:11;;;;;;;17.73;7.88;;;;;;;6.48;45.82;100411.44;5052027;28;20036;-73
2022/12/13 11:35:46;;;;;;;15.00;8.32;;;;;;;6.63;46.07;100410.38;5051818;28;20095;-74
2022/12/13 11:38:34;;;;;;;13.98;7.07;;;;;;;6.89;46.09;100446.84;5051601;28;20110;-73
2022/12/13 11:41:11;;;;;;;14.35;8.07;;;;;;;6.95;45.49;100453.56;4993197;28;20037;-73